createdAt,value
2019-02-17T00:01:03.045Z,9.17
2019-02-17T00:03:28.810Z,9.24
2019-02-17T00:05:54.558Z,9.23
2019-02-17T00:08:20.323Z,9.21
2019-02-17T00:10:46.064Z,9.17
2019-02-17T00:13:11.825Z,9.17
2019-02-17T00:15:37.569Z,9.21
2019-02-17T00:18:03.333Z,9.20
2019-02-17T00:20:29.092Z,9.17
2019-02-17T00:22:54.856Z,9.18
2019-02-17T00:25:20.685Z,9.15
2019-02-17T00:27:46.465Z,9.15
2019-02-17T00:30:12.208Z,9.15
2019-02-17T00:32:38.166Z,9.14
2019-02-17T00:35:05.320Z,9.13
2019-02-17T00:37:31.199Z,9.12
2019-02-17T00:39:56.987Z,9.12
2019-02-17T00:42:22.934Z,9.13
2019-02-17T00:44:49.507Z,9.10
2019-02-17T00:47:15.818Z,9.06
2019-02-17T00:49:41.894Z,9.02
2019-02-17T00:52:07.816Z,8.99
2019-02-17T00:54:33.981Z,8.99
2019-02-17T00:57:02.620Z,9.01
2019-02-17T00:59:28.569Z,8.98
2019-02-17T01:01:54.974Z,8.98
2019-02-17T01:04:21.134Z,9.03
2019-02-17T01:06:47.358Z,9.03
2019-02-17T01:09:13.118Z,8.98
2019-02-17T01:11:40.996Z,8.98
2019-02-17T01:14:07.191Z,9.06
2019-02-17T01:16:33.350Z,9.04
2019-02-17T01:18:59.096Z,9.03
2019-02-17T01:21:24.845Z,9.03
2019-02-17T01:23:50.623Z,9.08
2019-02-17T01:26:16.370Z,9.08
2019-02-17T01:28:42.119Z,9.08
2019-02-17T01:31:08.598Z,9.00
2019-02-17T01:33:34.713Z,9.07
2019-02-17T01:36:00.623Z,9.06
2019-02-17T01:38:26.435Z,9.06
2019-02-17T01:40:52.427Z,9.10
2019-02-17T01:43:18.332Z,9.12
2019-02-17T01:45:44.260Z,9.12
2019-02-17T01:48:10.137Z,9.10
2019-02-17T01:50:36.020Z,9.09
2019-02-17T01:53:01.930Z,9.08
2019-02-17T01:55:27.995Z,9.12
2019-02-17T01:57:53.744Z,9.10
2019-02-17T02:00:19.504Z,9.00
2019-02-17T02:02:45.247Z,9.03
2019-02-17T02:05:11.007Z,9.03
2019-02-17T02:07:36.753Z,9.08
2019-02-17T02:10:04.712Z,9.10
2019-02-17T02:12:30.471Z,9.15
2019-02-17T02:14:56.255Z,9.09
2019-02-17T02:17:22.005Z,9.11
2019-02-17T02:19:47.755Z,9.10
2019-02-17T02:22:13.512Z,9.08
2019-02-17T02:24:39.263Z,9.10
2019-02-17T02:27:05.020Z,9.12
2019-02-17T02:29:40.515Z,9.16
2019-02-17T02:31:58.470Z,9.21
2019-02-17T02:34:24.192Z,9.21
2019-02-17T02:36:49.952Z,9.15
2019-02-17T02:39:15.705Z,9.19
2019-02-17T02:41:41.489Z,9.10
2019-02-17T02:44:07.236Z,9.06
2019-02-17T02:46:33.000Z,9.09
2019-02-17T02:48:58.746Z,9.08
2019-02-17T02:51:24.512Z,9.07
2019-02-17T02:53:50.254Z,9.08
2019-02-17T02:56:16.013Z,9.10
2019-02-17T02:58:41.756Z,9.10
2019-02-17T03:01:08.624Z,9.10
2019-02-17T03:03:34.381Z,9.10
2019-02-17T03:06:02.041Z,9.10
2019-02-17T03:08:27.795Z,9.06
2019-02-17T03:10:53.576Z,9.00
2019-02-17T03:13:19.325Z,9.04
2019-02-17T03:15:45.072Z,9.03
2019-02-17T03:18:10.836Z,9.05
2019-02-17T03:20:36.588Z,9.02
2019-02-17T03:23:02.340Z,9.05
2019-02-17T03:25:28.083Z,9.05
2019-02-17T03:27:53.845Z,9.05
2019-02-17T03:30:19.596Z,9.09
2019-02-17T03:32:45.366Z,9.08
2019-02-17T03:35:11.103Z,9.03
2019-02-17T03:37:36.867Z,9.02
2019-02-17T03:40:04.823Z,9.06
2019-02-17T03:42:30.594Z,9.03
2019-02-17T03:44:56.344Z,8.97
2019-02-17T03:47:22.099Z,9.01
2019-02-17T03:49:47.845Z,8.98
2019-02-17T03:52:13.667Z,8.95
2019-02-17T03:54:39.353Z,8.97
2019-02-17T03:57:05.114Z,8.96
2019-02-17T03:59:30.864Z,8.96
2019-02-17T04:01:56.626Z,8.95
2019-02-17T04:04:22.369Z,8.94
2019-02-17T04:06:48.131Z,8.95
2019-02-17T04:09:13.880Z,8.99
2019-02-17T04:11:39.627Z,8.97
2019-02-17T04:14:05.396Z,8.99
2019-02-17T04:16:31.141Z,8.97
2019-02-17T04:18:56.899Z,8.98
2019-02-17T04:21:22.645Z,8.97
2019-02-17T04:23:48.409Z,8.95
2019-02-17T04:26:14.151Z,8.95
2019-02-17T04:28:39.911Z,8.93
2019-02-17T04:31:05.665Z,8.95
2019-02-17T04:33:31.439Z,8.97
2019-02-17T04:35:57.182Z,8.98
2019-02-17T04:38:22.953Z,8.97
2019-02-17T04:40:48.718Z,8.99
2019-02-17T04:43:14.485Z,8.97
2019-02-17T04:45:40.238Z,8.94
2019-02-17T04:48:05.997Z,8.94
2019-02-17T04:50:31.746Z,8.93
2019-02-17T04:52:57.515Z,8.93
2019-02-17T04:55:23.284Z,8.90
2019-02-17T04:57:49.046Z,8.94
2019-02-17T05:00:14.799Z,8.93
2019-02-17T05:02:40.556Z,8.94
2019-02-17T05:05:06.510Z,8.95
2019-02-17T05:07:32.280Z,8.94
2019-02-17T05:09:58.034Z,8.95
2019-02-17T05:12:23.780Z,8.92
2019-02-17T05:14:49.548Z,8.88
2019-02-17T05:17:15.614Z,8.89
2019-02-17T05:19:41.381Z,8.88
2019-02-17T05:22:07.139Z,8.92
2019-02-17T05:24:32.899Z,8.92
2019-02-17T05:26:58.654Z,8.97
2019-02-17T05:29:24.422Z,8.99
2019-02-17T05:31:50.178Z,8.99
2019-02-17T05:34:15.947Z,8.96
2019-02-17T05:36:41.701Z,8.98
2019-02-17T05:39:07.454Z,8.97
2019-02-17T05:41:33.216Z,8.96
2019-02-17T05:43:58.986Z,8.96
2019-02-17T05:46:24.736Z,8.94
2019-02-17T05:48:50.502Z,8.96
2019-02-17T05:51:16.252Z,8.96
2019-02-17T05:53:42.006Z,8.93
2019-02-17T05:56:07.751Z,8.88
2019-02-17T05:58:33.512Z,8.92
2019-02-17T06:01:03.796Z,8.96
2019-02-17T06:03:26.941Z,8.95
2019-02-17T06:05:52.680Z,8.94
2019-02-17T06:08:18.441Z,8.97
2019-02-17T06:10:44.194Z,8.99
2019-02-17T06:13:09.939Z,8.99
2019-02-17T06:15:35.707Z,8.98
2019-02-17T06:18:01.458Z,8.98
2019-02-17T06:20:27.216Z,8.96
2019-02-17T06:22:52.965Z,8.98
2019-02-17T06:25:18.732Z,8.96
2019-02-17T06:27:44.475Z,9.00
2019-02-17T06:30:10.238Z,9.00
2019-02-17T06:32:35.990Z,9.00
2019-02-17T06:35:01.756Z,9.00
2019-02-17T06:37:27.502Z,8.98
2019-02-17T06:39:53.269Z,8.97
2019-02-17T06:42:19.044Z,8.99
2019-02-17T06:44:44.808Z,9.01
2019-02-17T06:47:12.468Z,9.00
2019-02-17T06:49:38.240Z,8.97
2019-02-17T06:52:03.984Z,8.90
2019-02-17T06:54:29.752Z,8.99
2019-02-17T06:56:57.404Z,9.00
2019-02-17T06:59:23.175Z,9.00
2019-02-17T07:01:48.925Z,9.04
2019-02-17T07:04:14.702Z,9.05
2019-02-17T07:06:42.343Z,9.08
2019-02-17T07:09:08.119Z,9.09
2019-02-17T07:11:33.900Z,9.11
2019-02-17T07:13:59.619Z,9.14
2019-02-17T07:16:25.388Z,9.16
2019-02-17T07:18:51.135Z,9.18
2019-02-17T07:21:16.901Z,9.20
2019-02-17T07:23:42.653Z,9.22
2019-02-17T07:26:08.424Z,9.24
2019-02-17T07:28:34.164Z,9.27
2019-02-17T07:30:59.937Z,9.26
2019-02-17T07:33:25.752Z,9.24
2019-02-17T07:35:51.494Z,9.24
2019-02-17T07:38:17.252Z,9.26
2019-02-17T07:40:43.035Z,9.28
2019-02-17T07:43:08.795Z,9.31
2019-02-17T07:45:34.562Z,9.29
2019-02-17T07:48:00.309Z,9.29
2019-02-17T07:50:26.078Z,9.30
2019-02-17T07:52:51.842Z,9.30
2019-02-17T07:55:17.604Z,9.28
2019-02-17T07:57:43.358Z,9.22
2019-02-17T08:00:10.822Z,9.29
2019-02-17T08:02:36.584Z,9.31
2019-02-17T08:05:03.248Z,9.26
2019-02-17T08:07:29.006Z,9.24
2019-02-17T08:09:54.873Z,9.27
2019-02-17T08:12:20.722Z,9.27
2019-02-17T08:14:46.477Z,9.32
2019-02-17T08:17:12.242Z,9.36
2019-02-17T08:19:37.994Z,9.24
2019-02-17T08:22:03.750Z,9.30
2019-02-17T08:24:29.493Z,9.36
2019-02-17T08:26:55.257Z,9.36
2019-02-17T08:29:21.005Z,9.40
2019-02-17T08:31:55.152Z,9.42
2019-02-17T08:34:14.431Z,9.49
2019-02-17T08:36:40.193Z,9.55
2019-02-17T08:39:05.946Z,9.59
2019-02-17T08:41:31.726Z,9.65
2019-02-17T08:43:57.479Z,9.70
2019-02-17T08:46:23.258Z,9.71
2019-02-17T08:48:49.005Z,9.79
2019-02-17T08:51:14.768Z,9.86
2019-02-17T08:53:40.525Z,9.91
2019-02-17T08:56:06.279Z,9.97
2019-02-17T08:58:32.030Z,10.05
2019-02-17T09:00:57.793Z,10.06
2019-02-17T09:03:23.543Z,10.05
2019-02-17T09:05:49.306Z,9.97
2019-02-17T09:08:15.062Z,9.94
2019-02-17T09:10:40.853Z,9.92
2019-02-17T09:13:06.611Z,9.87
2019-02-17T09:15:32.353Z,9.86
2019-02-17T09:17:58.116Z,9.87
2019-02-17T09:20:23.863Z,9.91
2019-02-17T09:22:49.632Z,9.98
2019-02-17T09:25:15.373Z,10.06
2019-02-17T09:27:41.140Z,10.28
2019-02-17T09:30:09.984Z,10.44
2019-02-17T09:32:35.758Z,10.48
2019-02-17T09:35:01.510Z,10.51
2019-02-17T09:37:27.267Z,10.64
2019-02-17T09:39:53.017Z,10.78
2019-02-17T09:42:18.796Z,10.79
2019-02-17T09:44:44.540Z,10.77
2019-02-17T09:47:10.305Z,10.63
2019-02-17T09:49:36.750Z,10.74
2019-02-17T09:52:02.487Z,10.87
2019-02-17T09:54:28.242Z,10.99
2019-02-17T09:56:55.304Z,11.16
2019-02-17T09:59:21.060Z,11.29
2019-02-17T10:01:46.831Z,11.55
2019-02-17T10:04:13.176Z,11.51
2019-02-17T10:06:38.953Z,11.53
2019-02-17T10:09:04.804Z,11.50
2019-02-17T10:11:31.789Z,11.53
2019-02-17T10:13:57.617Z,11.59
2019-02-17T10:16:23.375Z,11.55
2019-02-17T10:18:49.143Z,11.69
2019-02-17T10:21:14.893Z,11.75
2019-02-17T10:23:40.651Z,11.75
2019-02-17T10:26:06.534Z,11.77
2019-02-17T10:28:41.873Z,11.87
2019-02-17T10:30:59.954Z,12.13
2019-02-17T10:33:25.729Z,12.35
2019-02-17T10:35:51.480Z,12.45
2019-02-17T10:38:17.245Z,12.66
2019-02-17T10:40:43.004Z,12.69
2019-02-17T10:43:09.069Z,12.80
2019-02-17T10:45:34.832Z,12.88
2019-02-17T10:48:00.651Z,12.87
2019-02-17T10:50:26.404Z,12.84
2019-02-17T10:52:52.199Z,12.93
2019-02-17T10:55:19.934Z,13.03
2019-02-17T10:57:46.350Z,13.19
2019-02-17T11:00:15.716Z,13.22
2019-02-17T11:02:47.043Z,13.31
2019-02-17T11:05:09.839Z,13.23
2019-02-17T11:07:35.609Z,13.19
2019-02-17T11:10:01.567Z,13.15
2019-02-17T11:12:30.043Z,13.24
2019-02-17T11:14:55.906Z,13.38
2019-02-17T11:17:23.765Z,13.53
2019-02-17T11:19:49.501Z,13.48
2019-02-17T11:22:22.901Z,13.38
2019-02-17T11:24:42.973Z,13.35
2019-02-17T11:27:08.776Z,13.47
2019-02-17T11:29:36.476Z,13.64
2019-02-17T11:32:02.275Z,13.71
2019-02-17T11:34:29.005Z,13.68
2019-02-17T11:36:56.354Z,13.56
2019-02-17T11:39:24.523Z,13.56
2019-02-17T11:41:51.115Z,13.61
2019-02-17T11:44:17.031Z,13.59
2019-02-17T11:46:43.078Z,13.65
2019-02-17T11:49:09.923Z,13.72
2019-02-17T11:51:36.454Z,13.77
2019-02-17T11:54:02.421Z,13.85
2019-02-17T11:56:28.170Z,13.98
2019-02-17T11:58:53.951Z,14.03
2019-02-17T12:01:19.707Z,13.99
2019-02-17T12:03:45.479Z,13.96
2019-02-17T12:06:11.233Z,13.97
2019-02-17T12:08:37.006Z,14.01
2019-02-17T12:11:02.936Z,14.06
2019-02-17T12:13:28.750Z,14.12
2019-02-17T12:15:54.540Z,14.27
2019-02-17T12:18:20.331Z,14.21
2019-02-17T12:20:50.776Z,14.20
2019-02-17T12:23:27.277Z,14.22
2019-02-17T12:25:54.928Z,14.29
2019-02-17T12:28:36.363Z,14.18
2019-02-17T12:31:02.191Z,14.24
2019-02-17T12:33:27.949Z,14.20
2019-02-17T12:35:53.716Z,14.13
2019-02-17T12:38:19.643Z,14.10
2019-02-17T12:40:45.427Z,14.31
2019-02-17T12:43:11.179Z,14.48
2019-02-17T12:45:36.975Z,14.47
2019-02-17T12:48:02.984Z,14.53
2019-02-17T12:50:28.770Z,14.82
2019-02-17T12:52:54.568Z,14.91
2019-02-17T12:55:20.334Z,15.00
2019-02-17T12:57:46.097Z,14.90
2019-02-17T13:00:14.958Z,14.62
2019-02-17T13:02:40.701Z,14.55
2019-02-17T13:05:07.565Z,14.43
2019-02-17T13:07:33.316Z,14.24
2019-02-17T13:09:59.085Z,14.20
2019-02-17T13:12:24.838Z,14.15
2019-02-17T13:14:50.606Z,14.15
2019-02-17T13:17:16.354Z,14.26
2019-02-17T13:19:42.124Z,14.29
2019-02-17T13:22:07.866Z,14.36
2019-02-17T13:24:33.628Z,14.48
2019-02-17T13:26:59.377Z,14.43
2019-02-17T13:29:25.169Z,14.33
2019-02-17T13:31:50.946Z,14.43
2019-02-17T13:34:16.697Z,14.45
2019-02-17T13:36:42.527Z,14.39
2019-02-17T13:39:08.276Z,14.18
2019-02-17T13:41:34.057Z,14.17
2019-02-17T13:43:59.820Z,14.05
2019-02-17T13:46:25.808Z,13.99
2019-02-17T13:48:51.638Z,13.98
2019-02-17T13:51:17.582Z,14.05
2019-02-17T13:53:43.338Z,14.13
2019-02-17T13:56:09.097Z,14.09
2019-02-17T13:58:34.923Z,14.08
2019-02-17T14:01:00.690Z,14.08
2019-02-17T14:03:26.436Z,14.12
2019-02-17T14:05:52.220Z,14.12
2019-02-17T14:08:17.958Z,14.07
2019-02-17T14:10:43.723Z,14.11
2019-02-17T14:13:09.473Z,14.03
2019-02-17T14:15:35.237Z,13.96
2019-02-17T14:18:00.985Z,13.97
2019-02-17T14:20:26.800Z,13.79
2019-02-17T14:22:52.598Z,13.68
2019-02-17T14:25:18.366Z,13.65
2019-02-17T14:27:44.116Z,13.48
2019-02-17T14:30:13.952Z,13.39
2019-02-17T14:32:39.717Z,13.28
2019-02-17T14:35:05.566Z,13.32
2019-02-17T14:37:31.409Z,13.18
2019-02-17T14:39:57.157Z,13.16
2019-02-17T14:42:22.928Z,13.09
2019-02-17T14:44:48.879Z,13.05
2019-02-17T14:47:14.648Z,13.00
2019-02-17T14:49:40.401Z,12.98
2019-02-17T14:52:06.259Z,13.01
2019-02-17T14:54:32.011Z,13.07
2019-02-17T14:56:57.778Z,12.95
2019-02-17T14:59:23.526Z,13.01
2019-02-17T15:01:49.304Z,12.99
2019-02-17T15:04:15.054Z,12.98
2019-02-17T15:06:40.818Z,12.98
2019-02-17T15:09:06.564Z,12.93
2019-02-17T15:11:32.335Z,12.97
2019-02-17T15:13:58.085Z,12.95
2019-02-17T15:16:23.861Z,12.84
2019-02-17T15:18:49.607Z,12.78
2019-02-17T15:21:15.394Z,12.76
2019-02-17T15:23:41.142Z,12.73
2019-02-17T15:26:06.905Z,12.67
2019-02-17T15:28:32.653Z,12.62
2019-02-17T15:30:58.405Z,12.62
2019-02-17T15:33:24.171Z,12.53
2019-02-17T15:35:49.944Z,12.41
2019-02-17T15:38:15.705Z,12.34
2019-02-17T15:40:41.486Z,12.28
2019-02-17T15:43:07.264Z,12.17
2019-02-17T15:45:33.016Z,12.08
2019-02-17T15:47:58.839Z,11.97
2019-02-17T15:50:24.584Z,11.86
2019-02-17T15:52:50.347Z,11.75
2019-02-17T15:55:16.107Z,11.68
2019-02-17T15:57:41.860Z,11.54
2019-02-17T16:00:10.110Z,11.47
2019-02-17T16:02:35.889Z,11.36
2019-02-17T16:05:02.048Z,11.28
2019-02-17T16:07:27.822Z,11.15
2019-02-17T16:09:53.592Z,11.05
2019-02-17T16:12:19.372Z,10.94
2019-02-17T16:14:45.128Z,10.84
2019-02-17T16:17:10.895Z,10.76
2019-02-17T16:19:36.659Z,10.65
2019-02-17T16:22:02.427Z,10.53
2019-02-17T16:24:28.168Z,10.43
2019-02-17T16:26:53.961Z,10.39
2019-02-17T16:29:19.711Z,10.32
2019-02-17T16:31:45.461Z,10.24
2019-02-17T16:34:11.957Z,10.17
2019-02-17T16:36:37.723Z,10.05
2019-02-17T16:39:07.217Z,9.93
2019-02-17T16:41:32.996Z,9.80
2019-02-17T16:43:58.769Z,9.76
2019-02-17T16:46:24.529Z,9.66
2019-02-17T16:48:50.301Z,9.57
2019-02-17T16:51:16.050Z,9.50
2019-02-17T16:53:41.814Z,9.38
2019-02-17T16:56:07.565Z,9.32
2019-02-17T16:58:33.335Z,9.26
2019-02-17T17:00:59.088Z,9.18
2019-02-17T17:03:24.861Z,9.12
2019-02-17T17:05:50.614Z,9.05
2019-02-17T17:08:16.385Z,8.98
2019-02-17T17:10:42.141Z,8.94
2019-02-17T17:13:07.935Z,8.90
2019-02-17T17:15:33.677Z,8.88
2019-02-17T17:17:59.444Z,8.79
2019-02-17T17:20:25.199Z,8.79
2019-02-17T17:22:50.982Z,8.70
2019-02-17T17:25:16.839Z,8.70
2019-02-17T17:27:42.580Z,8.63
2019-02-17T17:30:11.151Z,8.60
2019-02-17T17:32:36.920Z,8.48
2019-02-17T17:35:04.299Z,8.48
2019-02-17T17:37:30.073Z,8.46
2019-02-17T17:39:55.853Z,8.46
2019-02-17T17:42:21.626Z,8.46
2019-02-17T17:44:47.450Z,8.41
2019-02-17T17:47:13.201Z,8.37
2019-02-17T17:49:38.973Z,8.36
2019-02-17T17:52:04.719Z,8.31
2019-02-17T17:54:30.686Z,8.30
2019-02-17T17:56:56.421Z,8.31
2019-02-17T17:59:22.192Z,8.22
2019-02-17T18:01:48.030Z,8.12
2019-02-17T18:04:13.796Z,8.04
2019-02-17T18:06:39.568Z,8.01
2019-02-17T18:09:05.627Z,7.98
2019-02-17T18:11:31.398Z,7.98
2019-02-17T18:13:57.161Z,7.95
2019-02-17T18:16:22.938Z,7.87
2019-02-17T18:18:48.698Z,7.79
2019-02-17T18:21:14.459Z,7.85
2019-02-17T18:23:40.220Z,7.92
2019-02-17T18:26:05.996Z,7.97
2019-02-17T18:28:31.751Z,7.94
2019-02-17T18:30:57.513Z,7.92
2019-02-17T18:33:23.270Z,7.94
2019-02-17T18:35:49.069Z,7.91
2019-02-17T18:38:14.803Z,7.89
2019-02-17T18:40:44.959Z,7.87
2019-02-17T18:43:08.234Z,7.82
2019-02-17T18:45:34.103Z,7.83
2019-02-17T18:47:59.858Z,7.86
2019-02-17T18:50:25.627Z,7.89
2019-02-17T18:52:51.386Z,7.88
2019-02-17T18:55:17.137Z,7.81
2019-02-17T18:57:49.963Z,7.85
2019-02-17T19:00:16.620Z,7.81
2019-02-17T19:02:42.389Z,7.83
2019-02-17T19:05:09.753Z,7.92
2019-02-17T19:07:35.521Z,7.93
2019-02-17T19:10:01.392Z,7.95
2019-02-17T19:12:27.152Z,7.97
2019-02-17T19:14:52.930Z,7.94
2019-02-17T19:17:18.699Z,7.89
2019-02-17T19:19:44.465Z,7.86
2019-02-17T19:22:10.368Z,7.85
2019-02-17T19:24:36.206Z,7.76
2019-02-17T19:27:01.968Z,7.77
2019-02-17T19:29:27.774Z,7.71
2019-02-17T19:31:53.536Z,7.65
2019-02-17T19:34:19.392Z,7.61
2019-02-17T19:36:45.280Z,7.60
2019-02-17T19:39:11.139Z,7.51
2019-02-17T19:41:37.104Z,7.45
2019-02-17T19:44:03.158Z,7.49
2019-02-17T19:46:29.579Z,7.45
2019-02-17T19:48:55.803Z,7.41
2019-02-17T19:51:21.550Z,7.32
2019-02-17T19:53:47.347Z,7.33
2019-02-17T19:56:13.122Z,7.29
2019-02-17T19:58:39.041Z,7.20
2019-02-17T20:01:05.151Z,7.16
2019-02-17T20:03:32.953Z,7.13
2019-02-17T20:06:03.619Z,7.09
2019-02-17T20:08:29.395Z,7.06
2019-02-17T20:10:55.152Z,7.05
2019-02-17T20:13:21.401Z,7.04
2019-02-17T20:15:47.158Z,7.04
2019-02-17T20:18:12.919Z,7.01
2019-02-17T20:20:38.683Z,6.97
2019-02-17T20:23:04.455Z,6.97
2019-02-17T20:25:30.203Z,6.95
2019-02-17T20:27:55.959Z,6.93
2019-02-17T20:30:21.722Z,6.87
2019-02-17T20:32:47.477Z,6.86
2019-02-17T20:35:13.242Z,6.88
2019-02-17T20:37:39.007Z,6.87
2019-02-17T20:40:12.667Z,6.84
2019-02-17T20:42:38.448Z,6.77
2019-02-17T20:45:09.210Z,6.72
2019-02-17T20:47:34.967Z,6.71
2019-02-17T20:50:00.728Z,6.69
2019-02-17T20:52:26.485Z,6.64
2019-02-17T20:54:52.258Z,6.65
2019-02-17T20:57:18.020Z,6.67
2019-02-17T20:59:44.001Z,6.66
2019-02-17T21:02:09.751Z,6.66
2019-02-17T21:04:35.513Z,6.63
2019-02-17T21:07:01.271Z,6.62
2019-02-17T21:09:27.133Z,6.55
2019-02-17T21:11:52.895Z,6.49
2019-02-17T21:14:18.670Z,6.46
2019-02-17T21:16:44.425Z,6.40
2019-02-17T21:19:10.188Z,6.33
2019-02-17T21:21:36.062Z,6.32
2019-02-17T21:24:01.819Z,6.28
2019-02-17T21:26:27.569Z,6.22
2019-02-17T21:28:53.320Z,6.17
2019-02-17T21:31:19.089Z,6.06
2019-02-17T21:33:44.848Z,6.01
2019-02-17T21:36:10.621Z,5.95
2019-02-17T21:38:36.373Z,5.85
2019-02-17T21:41:09.013Z,5.74
2019-02-17T21:43:29.807Z,5.64
2019-02-17T21:45:55.880Z,5.59
2019-02-17T21:48:21.639Z,5.47
2019-02-17T21:50:47.403Z,5.38
2019-02-17T21:53:20.321Z,5.27
2019-02-17T21:55:40.844Z,5.27
2019-02-17T21:58:06.583Z,5.28
2019-02-17T22:00:32.348Z,5.27
2019-02-17T22:02:58.109Z,5.24
2019-02-17T22:05:23.875Z,5.28
2019-02-17T22:07:49.631Z,5.23
2019-02-17T22:10:16.400Z,5.27
2019-02-17T22:12:42.147Z,5.27
2019-02-17T22:15:13.408Z,5.29
2019-02-17T22:17:39.161Z,5.31
2019-02-17T22:20:07.025Z,5.33
2019-02-17T22:22:32.780Z,5.27
2019-02-17T22:24:58.563Z,5.16
2019-02-17T22:27:24.322Z,5.10
2019-02-17T22:29:50.083Z,5.03
2019-02-17T22:32:15.855Z,5.02
2019-02-17T22:34:41.608Z,4.98
2019-02-17T22:37:07.365Z,4.96
2019-02-17T22:39:33.121Z,4.90
2019-02-17T22:41:58.900Z,4.83
2019-02-17T22:44:24.668Z,4.76
2019-02-17T22:46:50.440Z,4.69
2019-02-17T22:49:17.018Z,4.56
2019-02-17T22:51:42.807Z,4.49
2019-02-17T22:54:08.559Z,4.44
2019-02-17T22:56:34.325Z,4.38
2019-02-17T22:59:00.079Z,4.34
2019-02-17T23:01:26.851Z,4.30
2019-02-17T23:03:52.602Z,4.25
2019-02-17T23:06:18.362Z,4.20
2019-02-17T23:08:44.122Z,4.15
2019-02-17T23:11:09.898Z,4.12
2019-02-17T23:13:35.657Z,4.10
2019-02-17T23:16:01.434Z,4.10
2019-02-17T23:18:27.184Z,4.10
2019-02-17T23:20:53.032Z,4.13
2019-02-17T23:23:18.788Z,4.07
2019-02-17T23:25:44.541Z,3.98
2019-02-17T23:28:10.300Z,3.93
2019-02-17T23:30:36.058Z,3.92
2019-02-17T23:33:01.837Z,3.91
2019-02-17T23:35:27.620Z,3.84
2019-02-17T23:37:53.440Z,3.84
2019-02-17T23:40:19.189Z,3.73
2019-02-17T23:42:44.978Z,3.90
2019-02-17T23:45:11.935Z,3.88
2019-02-17T23:47:37.701Z,3.80
2019-02-17T23:50:05.546Z,3.68
2019-02-17T23:52:31.313Z,3.67
2019-02-17T23:54:57.067Z,3.61
2019-02-17T23:57:22.838Z,3.63
2019-02-17T23:59:48.593Z,3.59
